Home   Weather   Woolomin   Past weeks
Flag for Australia

Past Weather in Woolomin, New South Wales, Australia — Yesterday and Last 2 Weeks

Currently: 52 °F. Clear. (Weather station: Tamworth Airport, Australia). See more current weather

Past Weather in Woolomin — Graph

°F

Woolomin Temperature Yesterday

Maximum temperature yesterday: 68 °F (at 3:00 pm)
Minimum temperature yesterday: 46 °F (at 1:30 am)
Average temperature yesterday: 55 °F

High & Low Weather Summary for the Past Weeks

 TemperatureHumidityPressure
High81 °F (May 14, 1:30 pm)100% (May 12, 4:02 pm)30.39 "Hg (May 12, 4:02 pm)
Low36 °F (May 19, 5:30 am)32% (May 19, 1:30 pm)29.92 "Hg (May 14, 1:30 pm)
Average59 °F82%30.15 "Hg
* Reported May 11 10:00 pm — May 26 10:00 pm, Woolomin. Weather by CustomWeather, © 2022

Note: Actual official high and low records may vary slightly from our data, if they occured in-between our weather recording intervals... More about our weather records

Woolomin Weather History for the Previous 24 Hours

Scroll right to see more
 ConditionsComfort  
Time TempWeatherWind HumidityBarometerVisibility
10:00 pm
Thu, May 26
52 °FClear.10 mph94%30.09 "HgN/A
9:30 pm52 °FClear.9 mph94%30.09 "HgN/A
9:00 pm54 °FClear.10 mph94%30.09 "HgN/A
8:30 pm52 °FClear.9 mph94%30.09 "HgN/A
8:00 pm54 °FClear.9 mph88%30.09 "HgN/A
7:30 pm55 °FPassing clouds.10 mph82%30.09 "HgN/A
7:00 pm57 °FPassing clouds.8 mph77%30.09 "HgN/A
6:30 pm61 °FPassing clouds.12 mph72%30.09 "HgN/A
5:30 pm61 °FClear.12 mph68%30.07 "HgN/A
5:00 pm66 °FSunny.No wind49%30.07 "HgN/A
4:30 pm70 °FScattered clouds.No wind43%30.04 "HgN/A
4:00 pm70 °FSunny.No wind46%30.04 "HgN/A
3:30 pm72 °FSunny.6 mph41%30.04 "HgN/A
3:00 pm72 °FSunny.1 mph44%30.04 "HgN/A
2:30 pm72 °FSunny.6 mph44%30.04 "HgN/A
2:00 pm72 °FSunny.6 mph44%30.07 "HgN/A
1:30 pm72 °FSunny.5 mph44%30.07 "HgN/A
1:00 pm72 °FSunny.3 mph44%30.07 "HgN/A
12:30 pm72 °FSunny.6 mph50%30.09 "HgN/A
12:00 pm68 °FSunny.3 mph56%30.09 "HgN/A
11:30 am68 °FSunny.5 mph53%30.12 "HgN/A
11:00 am68 °FSunny.1 mph53%30.12 "HgN/A
10:30 am66 °FSunny.1 mph56%30.12 "HgN/A
9:30 am63 °FSunny.5 mph68%30.15 "HgN/A
9:00 am59 °FSunny.7 mph77%30.15 "HgN/A
8:30 am57 °FSunny.9 mph82%30.15 "HgN/A
8:00 am54 °FSunny.9 mph88%30.15 "HgN/A
7:00 am52 °FScattered clouds.8 mph94%30.12 "HgN/A
6:30 am52 °FPassing clouds.8 mph94%30.12 "HgN/A
6:00 am50 °FOvercast.No wind94%30.12 "HgN/A
5:30 am52 °FMostly cloudy.5 mph94%30.09 "HgN/A
5:00 am52 °FOvercast.8 mph94%30.09 "HgN/A
4:30 am52 °FOvercast.9 mph94%30.09 "HgN/A
4:00 am52 °FOvercast.9 mph94%30.09 "HgN/A
3:30 am54 °FOvercast.8 mph88%30.09 "HgN/A
3:00 am54 °FMostly cloudy.8 mph88%30.09 "HgN/A
2:30 am52 °FOvercast.9 mph94%30.09 "HgN/A
2:00 am52 °FPassing clouds.10 mph94%30.09 "HgN/A
1:30 am54 °FClear.8 mph94%30.12 "HgN/A
1:00 am52 °FClear.No wind94%30.12 "HgN/A
12:30 am52 °FClear.6 mph88%30.12 "HgN/A
11:30 pm
Wed, May 25
54 °FClear.7 mph94%30.12 "HgN/A
Weather by CustomWeather, © 2022

See weather overview